createdAt,value
2019-03-31T00:01:20.948Z,1.00
2019-03-31T00:03:50.300Z,1.00
2019-03-31T00:06:19.628Z,1.00
2019-03-31T00:08:48.976Z,1.00
2019-03-31T00:11:24.130Z,1.00
2019-03-31T00:13:53.476Z,1.00
2019-03-31T00:16:22.808Z,1.00
2019-03-31T00:18:52.160Z,1.00
2019-03-31T00:21:21.497Z,1.00
2019-03-31T00:23:50.839Z,1.00
2019-03-31T00:26:20.251Z,1.00
2019-03-31T00:28:49.587Z,1.00
2019-03-31T00:31:22.415Z,1.00
2019-03-31T00:33:50.144Z,1.00
2019-03-31T00:36:19.476Z,1.00
2019-03-31T00:38:48.820Z,1.00
2019-03-31T00:41:18.165Z,1.00
2019-03-31T00:43:47.517Z,1.00
2019-03-31T00:46:16.844Z,1.00
2019-03-31T00:48:46.184Z,1.00
2019-03-31T00:51:15.580Z,1.00
2019-03-31T00:53:44.938Z,1.00
2019-03-31T00:56:14.295Z,1.00
2019-03-31T00:58:43.655Z,1.00
2019-03-31T01:01:36.709Z,1.00
2019-03-31T01:04:03.003Z,1.00
2019-03-31T01:06:45.254Z,1.00
2019-03-31T01:09:22.480Z,1.00
2019-03-31T01:11:52.232Z,1.00
2019-03-31T01:14:22.028Z,1.00
2019-03-31T01:16:51.605Z,1.00
2019-03-31T01:19:21.395Z,1.00
2019-03-31T01:21:50.747Z,1.00
2019-03-31T01:24:20.312Z,1.00
2019-03-31T01:26:49.715Z,1.00
2019-03-31T01:29:38.102Z,1.00
2019-03-31T01:32:07.708Z,1.00
2019-03-31T01:34:37.060Z,1.00
2019-03-31T01:37:06.515Z,1.00
2019-03-31T01:39:36.784Z,1.00
2019-03-31T01:42:06.224Z,1.00
2019-03-31T01:44:35.575Z,1.00
2019-03-31T01:47:06.149Z,1.00
2019-03-31T01:49:35.829Z,1.00
2019-03-31T01:52:16.735Z,1.00
2019-03-31T01:54:46.093Z,1.00
2019-03-31T01:57:15.518Z,1.00
2019-03-31T02:39:33.438Z,1.00
2019-03-31T02:42:02.884Z,1.00
2019-03-31T02:44:32.303Z,1.00
2019-03-31T02:47:01.642Z,1.00
2019-03-31T02:49:31.077Z,1.00
2019-03-31T02:52:02.691Z,1.00
2019-03-31T02:54:32.183Z,1.00
2019-03-31T02:57:02.178Z,1.00
2019-03-31T02:59:33.455Z,1.00
2019-03-31T03:02:03.518Z,1.00
2019-03-31T03:04:35.567Z,1.00
2019-03-31T03:07:25.279Z,1.00
2019-03-31T03:09:56.572Z,1.00
2019-03-31T03:12:28.000Z,1.00
2019-03-31T03:14:59.604Z,1.00
2019-03-31T03:17:28.952Z,1.00
2019-03-31T03:19:58.401Z,1.00
2019-03-31T03:22:27.793Z,1.00
2019-03-31T03:24:57.133Z,1.00
2019-03-31T03:27:26.463Z,1.00
2019-03-31T03:29:55.895Z,1.00
2019-03-31T03:32:25.290Z,1.00
2019-03-31T03:34:54.711Z,1.00
2019-03-31T03:37:24.136Z,1.00
2019-03-31T03:39:53.553Z,1.00
2019-03-31T03:42:22.878Z,1.00
2019-03-31T03:44:52.276Z,1.00
2019-03-31T03:47:21.601Z,1.00
2019-03-31T03:49:50.940Z,1.00
2019-03-31T03:52:20.471Z,1.00
2019-03-31T03:54:49.846Z,1.00
2019-03-31T03:57:19.229Z,1.00
2019-03-31T03:59:48.572Z,1.00
2019-03-31T04:02:36.923Z,1.00
2019-03-31T04:05:06.577Z,1.00
2019-03-31T04:07:54.914Z,1.00
2019-03-31T04:11:20.907Z,1.00
2019-03-31T04:13:47.443Z,1.00
2019-03-31T04:16:16.865Z,1.00
2019-03-31T04:18:46.276Z,1.00
2019-03-31T04:21:15.697Z,1.00
2019-03-31T04:23:45.122Z,1.00
2019-03-31T04:26:14.653Z,1.00
2019-03-31T04:28:44.085Z,1.00
2019-03-31T04:31:13.499Z,1.00
2019-03-31T04:34:01.881Z,1.00
2019-03-31T04:36:31.232Z,1.00
2019-03-31T04:39:00.945Z,1.00
2019-03-31T04:41:30.503Z,1.00
2019-03-31T04:43:59.884Z,1.00
2019-03-31T04:46:29.228Z,1.00
2019-03-31T04:48:58.622Z,1.00
2019-03-31T04:51:28.081Z,1.00
2019-03-31T04:53:57.472Z,1.00
2019-03-31T04:56:26.821Z,2.20
2019-03-31T04:58:56.163Z,5.20
2019-03-31T05:01:25.509Z,8.20
2019-03-31T05:04:04.735Z,10.20
2019-03-31T05:06:25.992Z,11.60
2019-03-31T05:08:55.320Z,12.40
2019-03-31T05:11:24.669Z,10.80
2019-03-31T05:13:54.112Z,10.40
2019-03-31T05:16:23.464Z,10.90
2019-03-31T05:18:52.792Z,10.50
2019-03-31T05:21:22.138Z,11.10
2019-03-31T05:23:51.468Z,12.50
2019-03-31T05:26:20.856Z,13.00
2019-03-31T05:28:50.189Z,13.20
2019-03-31T05:31:19.532Z,12.10
2019-03-31T05:33:48.876Z,13.90
2019-03-31T05:36:18.228Z,12.50
2019-03-31T05:38:47.569Z,12.10
2019-03-31T05:41:16.904Z,13.30
2019-03-31T05:43:46.240Z,12.00
2019-03-31T05:46:15.718Z,13.30
2019-03-31T06:02:41.081Z,18.20
2019-03-31T06:05:10.479Z,14.60
2019-03-31T06:07:39.821Z,3.00
2019-03-31T06:10:09.388Z,1.00
2019-03-31T06:12:38.760Z,1.00
2019-03-31T06:15:08.300Z,1.00
2019-03-31T06:17:37.639Z,1.00
2019-03-31T06:20:07.119Z,1.00
2019-03-31T06:22:36.440Z,1.00
2019-03-31T06:25:06.140Z,1.00
2019-03-31T06:27:35.502Z,1.00
2019-03-31T06:30:05.716Z,1.00
2019-03-31T06:32:35.059Z,1.00
2019-03-31T06:35:04.551Z,1.00
2019-03-31T06:37:33.893Z,1.00
2019-03-31T06:40:03.232Z,1.00
2019-03-31T06:42:32.579Z,1.00
2019-03-31T06:45:01.914Z,1.00
2019-03-31T06:47:31.319Z,1.00
2019-03-31T06:50:00.761Z,1.00
2019-03-31T06:52:30.185Z,1.00
2019-03-31T06:54:59.571Z,1.00
2019-03-31T06:57:28.923Z,1.00
2019-03-31T06:59:58.295Z,1.00
2019-03-31T07:02:27.631Z,1.00
2019-03-31T07:05:01.345Z,1.00
2019-03-31T07:07:28.024Z,1.00
2019-03-31T07:09:57.339Z,1.00
2019-03-31T07:12:26.675Z,1.00
2019-03-31T07:14:56.008Z,1.00
2019-03-31T07:17:25.392Z,1.00
2019-03-31T07:19:54.712Z,1.00
2019-03-31T07:22:24.461Z,1.00
2019-03-31T07:24:54.024Z,1.00
2019-03-31T07:27:23.372Z,1.00
2019-03-31T07:29:52.725Z,1.00
2019-03-31T07:32:22.067Z,1.00
2019-03-31T07:34:51.396Z,1.00
2019-03-31T07:37:20.732Z,1.00
2019-03-31T07:39:50.353Z,1.00
2019-03-31T07:42:19.862Z,1.00
2019-03-31T07:44:49.240Z,1.00
2019-03-31T07:47:18.671Z,1.00
2019-03-31T07:49:48.030Z,1.00
2019-03-31T07:52:17.367Z,1.00
2019-03-31T07:54:46.736Z,1.00
2019-03-31T07:57:16.097Z,1.00
2019-03-31T07:59:45.481Z,1.00
2019-03-31T08:02:14.812Z,1.00
2019-03-31T08:04:46.131Z,1.00
2019-03-31T08:07:15.552Z,1.00
2019-03-31T08:09:44.937Z,1.00
2019-03-31T08:12:14.292Z,1.00
2019-03-31T08:14:43.629Z,1.00
2019-03-31T08:17:12.946Z,1.00
2019-03-31T08:19:42.280Z,1.00
2019-03-31T08:22:11.633Z,1.00
2019-03-31T08:24:44.071Z,1.00
2019-03-31T08:27:17.134Z,1.00
2019-03-31T08:29:55.448Z,1.00
2019-03-31T08:32:17.896Z,1.00
2019-03-31T08:34:47.309Z,1.00
2019-03-31T08:37:16.625Z,1.00
2019-03-31T08:39:46.037Z,1.00
2019-03-31T08:42:15.359Z,1.00
2019-03-31T08:44:44.748Z,1.00
2019-03-31T08:47:14.093Z,1.00
2019-03-31T08:49:43.538Z,1.00
2019-03-31T08:55:58.410Z,1.00
2019-03-31T08:58:28.233Z,1.00
2019-03-31T09:01:01.183Z,1.00
2019-03-31T09:03:36.437Z,1.00
2019-03-31T09:06:05.813Z,1.00
2019-03-31T09:26:10.373Z,1.00
2019-03-31T09:28:39.825Z,1.00
2019-03-31T09:31:09.177Z,1.00
2019-03-31T09:33:44.626Z,1.00
2019-03-31T09:36:16.535Z,1.00
2019-03-31T09:38:45.255Z,1.00
2019-03-31T09:41:14.592Z,1.00
2019-03-31T09:43:43.933Z,1.00
2019-03-31T09:46:13.340Z,1.00
2019-03-31T09:48:42.692Z,1.00
2019-03-31T09:51:12.026Z,1.00
2019-03-31T09:53:41.355Z,1.00
2019-03-31T09:56:10.763Z,1.00
2019-03-31T09:58:40.120Z,1.00
2019-03-31T10:01:09.557Z,1.00
2019-03-31T10:03:38.891Z,1.00
2019-03-31T10:06:11.003Z,1.00
2019-03-31T10:08:39.377Z,1.00
2019-03-31T10:11:27.705Z,1.00
2019-03-31T10:13:57.037Z,1.00
2019-03-31T10:16:26.403Z,1.00
2019-03-31T10:18:55.824Z,1.00
2019-03-31T10:21:25.272Z,1.00
2019-03-31T10:23:54.616Z,1.00
2019-03-31T10:26:31.708Z,1.00
2019-03-31T10:29:35.752Z,1.00
2019-03-31T10:32:05.249Z,1.00
2019-03-31T10:34:34.615Z,1.00
2019-03-31T10:37:25.976Z,1.00
2019-03-31T10:39:55.445Z,1.00
2019-03-31T10:42:24.820Z,1.00
2019-03-31T10:44:54.231Z,1.00
2019-03-31T10:47:23.611Z,1.00
2019-03-31T10:49:53.003Z,1.00
2019-03-31T10:52:22.361Z,1.00
2019-03-31T10:54:51.692Z,1.00
2019-03-31T10:57:21.153Z,1.00
2019-03-31T10:59:50.505Z,1.00
2019-03-31T11:02:19.971Z,1.00
2019-03-31T11:04:49.383Z,1.00
2019-03-31T11:07:18.704Z,1.00
2019-03-31T11:09:48.075Z,1.00
2019-03-31T11:12:17.396Z,1.00
2019-03-31T11:14:46.853Z,1.00
2019-03-31T11:17:16.172Z,1.00
2019-03-31T11:19:45.523Z,1.00
2019-03-31T11:22:24.751Z,1.00
2019-03-31T11:24:54.119Z,1.00
2019-03-31T11:27:23.553Z,1.00
2019-03-31T11:30:11.963Z,1.00
2019-03-31T11:32:41.298Z,1.00
2019-03-31T11:35:29.720Z,1.00
2019-03-31T11:38:18.061Z,1.00
2019-03-31T11:40:47.436Z,1.00
2019-03-31T11:43:16.764Z,1.00
2019-03-31T11:45:46.107Z,1.00
2019-03-31T11:48:15.424Z,1.00
2019-03-31T11:50:44.796Z,1.00
2019-03-31T11:53:14.111Z,1.00
2019-03-31T11:55:43.447Z,1.00
2019-03-31T11:58:12.812Z,1.00
2019-03-31T12:00:48.053Z,1.00
2019-03-31T12:03:17.487Z,1.00
2019-03-31T12:05:47.909Z,1.00
2019-03-31T12:08:17.315Z,1.00
2019-03-31T12:10:46.842Z,1.00
2019-03-31T12:13:16.158Z,1.00
2019-03-31T12:15:45.571Z,1.00
2019-03-31T12:18:14.880Z,1.00
2019-03-31T12:20:44.214Z,1.00
2019-03-31T12:23:13.531Z,1.00
2019-03-31T12:25:42.847Z,1.00
2019-03-31T12:28:31.175Z,1.00
2019-03-31T12:31:00.644Z,1.00
2019-03-31T12:33:29.953Z,1.00
2019-03-31T12:36:07.181Z,1.00
2019-03-31T12:38:36.516Z,1.00
2019-03-31T12:41:05.846Z,1.00
2019-03-31T12:43:35.232Z,1.00
2019-03-31T12:46:04.668Z,1.00
2019-03-31T12:48:33.992Z,1.00
2019-03-31T12:51:03.386Z,1.00
2019-03-31T12:53:32.703Z,1.00
2019-03-31T12:56:02.029Z,1.00
2019-03-31T12:58:31.463Z,1.00
2019-03-31T13:01:01.160Z,1.00
2019-03-31T13:03:30.468Z,1.00
2019-03-31T13:05:59.811Z,1.00
2019-03-31T13:08:29.128Z,1.00
2019-03-31T13:10:58.451Z,1.00
2019-03-31T13:13:27.770Z,1.00
2019-03-31T13:15:57.115Z,1.00
2019-03-31T13:18:28.204Z,1.00
2019-03-31T13:20:57.484Z,1.00
2019-03-31T13:23:26.902Z,1.00
2019-03-31T13:25:56.294Z,1.00
2019-03-31T13:28:25.626Z,1.00
2019-03-31T13:30:55.016Z,1.00
2019-03-31T13:33:24.346Z,1.00
2019-03-31T13:35:53.654Z,1.00
2019-03-31T13:38:23.057Z,1.00
2019-03-31T13:40:52.368Z,1.00
2019-03-31T13:43:21.701Z,1.00
2019-03-31T13:45:51.032Z,1.00
2019-03-31T13:48:20.450Z,1.00
2019-03-31T13:50:49.852Z,1.00
2019-03-31T13:53:19.260Z,1.00
2019-03-31T13:55:48.580Z,1.00
2019-03-31T13:58:18.786Z,1.00
2019-03-31T14:00:48.854Z,1.00
2019-03-31T14:03:18.247Z,1.00
2019-03-31T14:05:47.651Z,1.00
2019-03-31T14:08:25.604Z,1.00
2019-03-31T14:10:48.108Z,1.00
2019-03-31T14:13:17.436Z,1.00
2019-03-31T14:15:46.752Z,1.00
2019-03-31T14:18:16.152Z,1.00
2019-03-31T14:20:45.494Z,1.00
2019-03-31T14:23:14.825Z,1.00
2019-03-31T14:25:44.288Z,1.00
2019-03-31T14:28:13.640Z,1.00
2019-03-31T14:30:42.968Z,1.00
2019-03-31T14:33:12.359Z,1.00
2019-03-31T14:35:41.801Z,1.00
2019-03-31T14:38:11.249Z,1.00
2019-03-31T14:40:40.631Z,1.00
2019-03-31T14:43:10.051Z,1.00
2019-03-31T14:45:39.512Z,1.00
2019-03-31T14:48:08.856Z,1.00
2019-03-31T14:50:39.641Z,1.00
2019-03-31T14:53:09.471Z,1.00
2019-03-31T14:55:39.001Z,1.00
2019-03-31T14:58:08.713Z,1.00
2019-03-31T15:00:38.213Z,1.00
2019-03-31T15:03:07.793Z,1.00
2019-03-31T15:05:37.104Z,1.00
2019-03-31T15:08:06.435Z,1.00
2019-03-31T15:10:36.336Z,1.00
2019-03-31T15:13:05.756Z,1.00
2019-03-31T15:15:35.077Z,1.00
2019-03-31T15:18:04.821Z,1.00
2019-03-31T15:20:34.145Z,1.00
2019-03-31T15:23:03.581Z,1.00
2019-03-31T15:25:54.688Z,1.00
2019-03-31T15:28:24.103Z,1.00
2019-03-31T15:30:53.571Z,1.00
2019-03-31T15:33:23.015Z,1.00
2019-03-31T15:35:52.348Z,1.00
2019-03-31T15:38:21.713Z,1.00
2019-03-31T15:40:51.142Z,1.00
2019-03-31T15:43:20.467Z,1.00
2019-03-31T15:45:49.776Z,1.00
2019-03-31T15:48:19.112Z,1.00
2019-03-31T15:50:48.441Z,1.00
2019-03-31T15:53:17.757Z,1.00
2019-03-31T15:55:47.144Z,1.00
2019-03-31T15:58:16.516Z,1.00
2019-03-31T16:00:45.888Z,1.00
2019-03-31T16:03:15.275Z,1.00
2019-03-31T16:05:44.601Z,1.00
2019-03-31T16:08:13.440Z,1.00
2019-03-31T16:10:42.435Z,1.00
2019-03-31T16:13:13.312Z,1.00
2019-03-31T16:15:42.189Z,1.00
2019-03-31T16:18:11.037Z,1.00
2019-03-31T16:20:39.878Z,1.00
2019-03-31T16:23:08.686Z,1.00
2019-03-31T16:29:54.126Z,1.00
2019-03-31T16:32:22.748Z,1.00
2019-03-31T16:34:51.585Z,1.00
2019-03-31T16:51:24.792Z,1.00
2019-03-31T16:53:53.740Z,1.00
2019-03-31T17:12:56.194Z,1.00
2019-03-31T17:15:25.118Z,1.00
2019-03-31T17:17:53.923Z,1.00
2019-03-31T17:20:22.745Z,1.00
2019-03-31T17:22:51.588Z,1.00
2019-03-31T17:25:20.483Z,1.00
2019-03-31T17:27:49.293Z,1.00
2019-03-31T17:30:18.874Z,1.00
2019-03-31T17:32:47.689Z,1.00
2019-03-31T17:35:16.512Z,1.00
2019-03-31T17:37:45.345Z,1.00
2019-03-31T17:40:14.348Z,1.00
2019-03-31T17:42:43.320Z,1.00
2019-03-31T17:45:12.311Z,1.00
2019-03-31T17:47:41.156Z,1.00
2019-03-31T17:50:09.980Z,1.00
2019-03-31T17:52:38.792Z,1.00
2019-03-31T17:55:08.504Z,1.00
2019-03-31T17:57:38.434Z,1.00
2019-03-31T18:00:08.615Z,1.00
2019-03-31T18:20:12.317Z,1.00
2019-03-31T18:22:44.435Z,1.00
2019-03-31T18:25:23.472Z,1.00
2019-03-31T18:27:52.253Z,1.00
2019-03-31T18:30:21.763Z,1.00
2019-03-31T18:32:50.562Z,1.00
2019-03-31T18:35:19.504Z,1.00
2019-03-31T18:37:48.377Z,1.00
2019-03-31T18:40:17.248Z,1.00
2019-03-31T18:42:46.048Z,1.00
2019-03-31T18:45:15.004Z,1.00
2019-03-31T18:48:03.044Z,1.00
2019-03-31T18:51:03.331Z,1.00
2019-03-31T18:53:51.208Z,1.00
2019-03-31T18:56:39.176Z,1.00
2019-03-31T18:59:29.848Z,1.00
2019-03-31T19:02:33.049Z,1.00
2019-03-31T19:05:19.835Z,1.00
2019-03-31T19:08:19.989Z,1.00
2019-03-31T19:11:10.695Z,1.00
2019-03-31T19:13:55.578Z,1.00
2019-03-31T19:16:38.706Z,1.00
2019-03-31T19:19:27.348Z,1.00
2019-03-31T19:22:05.573Z,1.00
2019-03-31T19:24:46.128Z,1.00
2019-03-31T19:27:30.552Z,1.00
2019-03-31T19:30:17.401Z,1.00
2019-03-31T19:33:03.083Z,1.00
2019-03-31T19:35:49.615Z,1.00
2019-03-31T19:38:31.880Z,1.00
2019-03-31T19:41:15.439Z,1.00
2019-03-31T19:44:02.200Z,1.00
2019-03-31T19:46:52.852Z,1.00
2019-03-31T19:49:29.904Z,1.00
2019-03-31T19:52:45.015Z,1.00
2019-03-31T19:55:24.311Z,1.00
2019-03-31T19:58:05.618Z,1.00
2019-03-31T20:01:05.906Z,1.00
2019-03-31T20:03:55.604Z,1.00
2019-03-31T20:06:32.804Z,1.00
2019-03-31T20:09:13.356Z,1.00
2019-03-31T20:11:55.161Z,1.00
2019-03-31T20:14:42.092Z,1.00
2019-03-31T20:17:25.609Z,1.00
2019-03-31T20:20:10.863Z,1.00
2019-03-31T20:22:57.776Z,1.00
2019-03-31T20:25:34.223Z,1.00
2019-03-31T20:28:07.252Z,1.00
2019-03-31T20:31:15.994Z,1.00
2019-03-31T20:34:02.268Z,1.00
2019-03-31T20:36:48.151Z,1.00
2019-03-31T20:39:29.842Z,1.00
2019-03-31T20:42:16.398Z,1.00
2019-03-31T20:44:45.185Z,1.00
2019-03-31T20:47:13.991Z,1.00
2019-03-31T20:49:42.776Z,1.00
2019-03-31T20:52:11.644Z,1.00
2019-03-31T20:54:40.437Z,1.00
2019-03-31T20:57:09.265Z,1.00
2019-03-31T20:59:38.216Z,1.00
2019-03-31T21:02:07.158Z,1.00
2019-03-31T21:04:36.031Z,1.00
2019-03-31T21:07:04.976Z,1.00
2019-03-31T21:09:44.400Z,1.00
2019-03-31T21:12:04.339Z,1.00
2019-03-31T21:14:33.112Z,1.00
2019-03-31T21:17:01.911Z,1.00
2019-03-31T21:19:30.688Z,1.00
2019-03-31T21:21:59.480Z,1.00
2019-03-31T21:24:28.257Z,1.00
2019-03-31T21:26:57.057Z,1.00
2019-03-31T21:29:25.816Z,1.00
2019-03-31T21:31:54.676Z,1.00
2019-03-31T21:34:23.551Z,1.00
2019-03-31T21:36:52.335Z,1.00
2019-03-31T21:39:27.132Z,1.00
2019-03-31T21:41:55.911Z,1.00
2019-03-31T21:44:24.724Z,1.00
2019-03-31T21:46:55.925Z,1.00
2019-03-31T21:49:24.083Z,1.00
2019-03-31T21:51:52.878Z,1.00
2019-03-31T21:54:21.675Z,1.00
2019-03-31T21:56:50.447Z,1.00
2019-03-31T21:59:19.339Z,1.00
2019-03-31T22:01:48.379Z,1.00
2019-03-31T22:04:17.234Z,1.00
2019-03-31T22:06:46.044Z,1.00
2019-03-31T22:09:14.924Z,1.00
2019-03-31T22:11:43.712Z,1.00
2019-03-31T22:14:12.509Z,1.00
2019-03-31T22:16:41.377Z,1.00
2019-03-31T22:19:10.159Z,1.00
2019-03-31T22:21:38.942Z,1.00
2019-03-31T22:24:07.892Z,1.00
2019-03-31T22:26:36.670Z,1.00
2019-03-31T22:29:05.532Z,1.00
2019-03-31T22:31:34.309Z,1.00
2019-03-31T22:34:03.179Z,1.00
2019-03-31T22:36:31.955Z,1.00
2019-03-31T22:39:00.752Z,1.00
2019-03-31T22:41:29.530Z,1.00
2019-03-31T22:43:58.309Z,1.00
2019-03-31T22:46:27.158Z,1.00
2019-03-31T22:48:55.940Z,1.00
2019-03-31T22:51:24.720Z,1.00
2019-03-31T22:53:53.561Z,1.00
2019-03-31T22:56:22.411Z,1.00
2019-03-31T22:58:51.216Z,1.00
2019-03-31T23:01:20.064Z,1.00
2019-03-31T23:03:48.839Z,1.00
2019-03-31T23:06:17.620Z,1.00
2019-03-31T23:08:46.408Z,1.00
2019-03-31T23:11:15.183Z,1.00
2019-03-31T23:13:44.039Z,1.00
2019-03-31T23:16:12.819Z,1.00
2019-03-31T23:18:41.758Z,1.00
2019-03-31T23:21:10.524Z,1.00
2019-03-31T23:23:39.311Z,1.00
2019-03-31T23:26:08.096Z,1.00
2019-03-31T23:28:46.353Z,1.00
2019-03-31T23:31:16.312Z,1.00
2019-03-31T23:33:45.292Z,1.00
2019-03-31T23:36:14.112Z,1.00
2019-03-31T23:38:42.975Z,1.00
2019-03-31T23:41:11.808Z,1.00
2019-03-31T23:43:40.672Z,1.00
2019-03-31T23:46:09.447Z,1.00
2019-03-31T23:48:38.236Z,1.00
2019-03-31T23:51:07.041Z,1.00
2019-03-31T23:53:35.823Z,1.00
2019-03-31T23:56:04.635Z,1.00
2019-03-31T23:58:33.462Z,1.00
